sensor_id;sensor_type;location;lat;lon;timestamp;P1;durP1;ratioP1;P2;durP2;ratioP2
25073;SDS011;13066;52.042;5.648;2023-02-02T00:02:21;18.73;;;4.65;;
25073;SDS011;13066;52.042;5.648;2023-02-02T00:04:49;21.10;;;4.43;;
25073;SDS011;13066;52.042;5.648;2023-02-02T00:07:17;29.50;;;4.80;;
25073;SDS011;13066;52.042;5.648;2023-02-02T00:09:45;26.58;;;4.97;;
25073;SDS011;13066;52.042;5.648;2023-02-02T00:12:12;32.28;;;4.93;;
25073;SDS011;13066;52.042;5.648;2023-02-02T00:14:40;24.30;;;4.85;;
25073;SDS011;13066;52.042;5.648;2023-02-02T00:17:10;34.97;;;4.68;;
25073;SDS011;13066;52.042;5.648;2023-02-02T00:19:40;31.30;;;5.47;;
25073;SDS011;13066;52.042;5.648;2023-02-02T00:22:08;39.67;;;4.78;;
25073;SDS011;13066;52.042;5.648;2023-02-02T00:24:36;34.13;;;5.30;;
25073;SDS011;13066;52.042;5.648;2023-02-02T00:27:07;30.90;;;4.53;;
25073;SDS011;13066;52.042;5.648;2023-02-02T00:29:36;29.80;;;4.15;;
25073;SDS011;13066;52.042;5.648;2023-02-02T00:32:05;27.00;;;4.25;;
25073;SDS011;13066;52.042;5.648;2023-02-02T00:34:34;25.90;;;3.90;;
25073;SDS011;13066;52.042;5.648;2023-02-02T00:37:03;21.05;;;3.80;;
25073;SDS011;13066;52.042;5.648;2023-02-02T00:39:32;24.35;;;3.88;;
25073;SDS011;13066;52.042;5.648;2023-02-02T00:42:00;27.83;;;4.07;;
25073;SDS011;13066;52.042;5.648;2023-02-02T00:44:28;31.10;;;4.47;;
25073;SDS011;13066;52.042;5.648;2023-02-02T00:47:29;26.42;;;3.92;;
25073;SDS011;13066;52.042;5.648;2023-02-02T00:49:59;35.13;;;4.30;;
25073;SDS011;13066;52.042;5.648;2023-02-02T00:52:27;34.42;;;5.00;;
25073;SDS011;13066;52.042;5.648;2023-02-02T00:54:55;22.98;;;4.13;;
25073;SDS011;13066;52.042;5.648;2023-02-02T00:57:24;27.05;;;4.18;;
25073;SDS011;13066;52.042;5.648;2023-02-02T00:59:51;22.98;;;3.72;;
25073;SDS011;13066;52.042;5.648;2023-02-02T01:02:19;23.50;;;4.00;;
25073;SDS011;13066;52.042;5.648;2023-02-02T01:04:48;29.30;;;4.05;;
25073;SDS011;13066;52.042;5.648;2023-02-02T01:07:18;23.02;;;4.65;;
25073;SDS011;13066;52.042;5.648;2023-02-02T01:09:45;25.70;;;4.30;;
25073;SDS011;13066;52.042;5.648;2023-02-02T01:12:13;27.15;;;4.55;;
25073;SDS011;13066;52.042;5.648;2023-02-02T01:14:41;22.80;;;3.92;;
25073;SDS011;13066;52.042;5.648;2023-02-02T01:17:09;22.23;;;3.65;;
25073;SDS011;13066;52.042;5.648;2023-02-02T01:19:37;22.65;;;4.00;;
25073;SDS011;13066;52.042;5.648;2023-02-02T01:22:05;21.17;;;4.03;;
25073;SDS011;13066;52.042;5.648;2023-02-02T01:24:35;22.05;;;4.25;;
25073;SDS011;13066;52.042;5.648;2023-02-02T01:27:03;22.95;;;3.72;;
25073;SDS011;13066;52.042;5.648;2023-02-02T01:29:31;26.95;;;3.92;;
25073;SDS011;13066;52.042;5.648;2023-02-02T01:31:59;23.85;;;3.95;;
25073;SDS011;13066;52.042;5.648;2023-02-02T01:34:27;30.60;;;4.68;;
25073;SDS011;13066;52.042;5.648;2023-02-02T01:36:55;20.38;;;3.75;;
25073;SDS011;13066;52.042;5.648;2023-02-02T01:39:23;25.13;;;3.70;;
25073;SDS011;13066;52.042;5.648;2023-02-02T01:41:52;25.77;;;3.13;;
25073;SDS011;13066;52.042;5.648;2023-02-02T01:47:26;22.88;;;3.50;;
25073;SDS011;13066;52.042;5.648;2023-02-02T01:49:56;15.57;;;2.95;;
25073;SDS011;13066;52.042;5.648;2023-02-02T01:52:25;17.25;;;2.70;;
25073;SDS011;13066;52.042;5.648;2023-02-02T01:54:55;7.10;;;2.30;;
25073;SDS011;13066;52.042;5.648;2023-02-02T01:57:29;13.20;;;2.75;;
25073;SDS011;13066;52.042;5.648;2023-02-02T02:00:02;14.60;;;3.10;;
25073;SDS011;13066;52.042;5.648;2023-02-02T02:02:38;17.15;;;2.80;;
25073;SDS011;13066;52.042;5.648;2023-02-02T02:05:09;11.50;;;2.95;;
25073;SDS011;13066;52.042;5.648;2023-02-02T02:07:38;14.35;;;2.75;;
25073;SDS011;13066;52.042;5.648;2023-02-02T02:10:07;18.60;;;2.72;;
25073;SDS011;13066;52.042;5.648;2023-02-02T02:12:37;17.23;;;2.78;;
25073;SDS011;13066;52.042;5.648;2023-02-02T02:15:05;24.40;;;3.55;;
25073;SDS011;13066;52.042;5.648;2023-02-02T02:17:56;18.85;;;3.17;;
25073;SDS011;13066;52.042;5.648;2023-02-02T02:20:41;14.45;;;2.78;;
25073;SDS011;13066;52.042;5.648;2023-02-02T02:26:59;15.85;;;2.83;;
25073;SDS011;13066;52.042;5.648;2023-02-02T02:32:30;17.63;;;2.87;;
25073;SDS011;13066;52.042;5.648;2023-02-02T02:35:04;21.60;;;2.65;;
25073;SDS011;13066;52.042;5.648;2023-02-02T02:37:38;10.82;;;2.58;;
25073;SDS011;13066;52.042;5.648;2023-02-02T02:40:11;13.80;;;2.65;;
25073;SDS011;13066;52.042;5.648;2023-02-02T02:42:45;15.93;;;2.80;;
25073;SDS011;13066;52.042;5.648;2023-02-02T02:45:16;10.80;;;2.88;;
25073;SDS011;13066;52.042;5.648;2023-02-02T02:47:47;16.35;;;2.85;;
25073;SDS011;13066;52.042;5.648;2023-02-02T02:50:15;9.88;;;2.92;;
25073;SDS011;13066;52.042;5.648;2023-02-02T02:52:43;15.25;;;3.20;;
25073;SDS011;13066;52.042;5.648;2023-02-02T02:55:12;16.02;;;3.10;;
25073;SDS011;13066;52.042;5.648;2023-02-02T02:57:48;15.48;;;2.88;;
25073;SDS011;13066;52.042;5.648;2023-02-02T03:00:33;14.32;;;3.28;;
25073;SDS011;13066;52.042;5.648;2023-02-02T03:03:15;15.68;;;3.58;;
25073;SDS011;13066;52.042;5.648;2023-02-02T03:05:48;15.57;;;3.42;;
25073;SDS011;13066;52.042;5.648;2023-02-02T03:08:19;16.58;;;3.53;;
25073;SDS011;13066;52.042;5.648;2023-02-02T03:10:51;25.30;;;4.53;;
25073;SDS011;13066;52.042;5.648;2023-02-02T03:13:20;23.70;;;3.92;;
25073;SDS011;13066;52.042;5.648;2023-02-02T03:15:48;22.20;;;3.53;;
25073;SDS011;13066;52.042;5.648;2023-02-02T03:18:18;20.50;;;4.10;;
25073;SDS011;13066;52.042;5.648;2023-02-02T03:20:47;26.67;;;3.70;;
25073;SDS011;13066;52.042;5.648;2023-02-02T03:23:15;18.15;;;3.75;;
25073;SDS011;13066;52.042;5.648;2023-02-02T03:25:43;24.90;;;3.95;;
25073;SDS011;13066;52.042;5.648;2023-02-02T03:28:10;21.75;;;4.22;;
25073;SDS011;13066;52.042;5.648;2023-02-02T03:30:39;21.27;;;3.28;;
25073;SDS011;13066;52.042;5.648;2023-02-02T03:33:08;23.67;;;3.92;;
25073;SDS011;13066;52.042;5.648;2023-02-02T03:35:38;33.20;;;4.65;;
25073;SDS011;13066;52.042;5.648;2023-02-02T03:38:06;31.55;;;4.95;;
25073;SDS011;13066;52.042;5.648;2023-02-02T03:40:34;28.25;;;4.70;;
25073;SDS011;13066;52.042;5.648;2023-02-02T03:43:02;33.58;;;4.82;;
25073;SDS011;13066;52.042;5.648;2023-02-02T03:45:30;35.88;;;5.15;;
25073;SDS011;13066;52.042;5.648;2023-02-02T03:48:02;30.27;;;5.35;;
25073;SDS011;13066;52.042;5.648;2023-02-02T03:50:30;27.17;;;4.97;;
25073;SDS011;13066;52.042;5.648;2023-02-02T03:52:59;30.80;;;4.65;;
25073;SDS011;13066;52.042;5.648;2023-02-02T03:55:28;32.60;;;4.32;;
25073;SDS011;13066;52.042;5.648;2023-02-02T03:57:59;31.40;;;4.88;;
25073;SDS011;13066;52.042;5.648;2023-02-02T04:00:29;23.08;;;4.25;;
25073;SDS011;13066;52.042;5.648;2023-02-02T04:02:57;30.05;;;4.57;;
25073;SDS011;13066;52.042;5.648;2023-02-02T04:05:25;28.95;;;4.50;;
25073;SDS011;13066;52.042;5.648;2023-02-02T04:07:53;27.05;;;5.07;;
25073;SDS011;13066;52.042;5.648;2023-02-02T04:10:23;28.52;;;4.35;;
25073;SDS011;13066;52.042;5.648;2023-02-02T04:12:51;26.17;;;4.72;;
25073;SDS011;13066;52.042;5.648;2023-02-02T04:15:18;39.53;;;4.72;;
25073;SDS011;13066;52.042;5.648;2023-02-02T04:17:47;25.48;;;4.32;;
25073;SDS011;13066;52.042;5.648;2023-02-02T04:20:15;24.80;;;4.05;;
25073;SDS011;13066;52.042;5.648;2023-02-02T04:22:44;32.13;;;4.43;;
25073;SDS011;13066;52.042;5.648;2023-02-02T04:25:12;32.05;;;4.57;;
25073;SDS011;13066;52.042;5.648;2023-02-02T04:27:41;34.55;;;4.47;;
25073;SDS011;13066;52.042;5.648;2023-02-02T04:30:09;25.92;;;5.25;;
25073;SDS011;13066;52.042;5.648;2023-02-02T04:32:38;27.30;;;4.03;;
25073;SDS011;13066;52.042;5.648;2023-02-02T04:35:06;28.45;;;5.03;;
25073;SDS011;13066;52.042;5.648;2023-02-02T04:37:35;23.30;;;3.95;;
25073;SDS011;13066;52.042;5.648;2023-02-02T04:40:03;29.30;;;4.65;;
25073;SDS011;13066;52.042;5.648;2023-02-02T04:42:31;18.30;;;3.30;;
25073;SDS011;13066;52.042;5.648;2023-02-02T04:45:02;31.17;;;3.63;;
25073;SDS011;13066;52.042;5.648;2023-02-02T04:47:30;20.38;;;3.88;;
25073;SDS011;13066;52.042;5.648;2023-02-02T04:49:58;27.20;;;4.15;;
25073;SDS011;13066;52.042;5.648;2023-02-02T04:52:26;21.83;;;3.88;;
25073;SDS011;13066;52.042;5.648;2023-02-02T04:54:55;30.17;;;5.53;;
25073;SDS011;13066;52.042;5.648;2023-02-02T04:57:23;23.27;;;4.38;;
25073;SDS011;13066;52.042;5.648;2023-02-02T04:59:50;25.85;;;3.55;;
25073;SDS011;13066;52.042;5.648;2023-02-02T05:02:20;26.30;;;4.20;;
25073;SDS011;13066;52.042;5.648;2023-02-02T05:04:48;29.10;;;4.18;;
25073;SDS011;13066;52.042;5.648;2023-02-02T05:07:16;22.88;;;3.38;;
25073;SDS011;13066;52.042;5.648;2023-02-02T05:09:44;21.40;;;4.70;;
25073;SDS011;13066;52.042;5.648;2023-02-02T05:12:12;26.83;;;4.32;;
25073;SDS011;13066;52.042;5.648;2023-02-02T05:14:40;31.63;;;4.38;;
25073;SDS011;13066;52.042;5.648;2023-02-02T05:17:08;34.70;;;4.95;;
25073;SDS011;13066;52.042;5.648;2023-02-02T05:19:37;30.10;;;5.20;;
25073;SDS011;13066;52.042;5.648;2023-02-02T05:22:05;18.52;;;3.60;;
25073;SDS011;13066;52.042;5.648;2023-02-02T05:24:33;28.25;;;4.40;;
25073;SDS011;13066;52.042;5.648;2023-02-02T05:27:02;26.92;;;4.43;;
25073;SDS011;13066;52.042;5.648;2023-02-02T05:29:30;25.52;;;4.40;;
25073;SDS011;13066;52.042;5.648;2023-02-02T05:31:58;22.52;;;3.78;;
25073;SDS011;13066;52.042;5.648;2023-02-02T05:34:26;27.23;;;4.75;;
25073;SDS011;13066;52.042;5.648;2023-02-02T05:36:55;27.73;;;4.13;;
25073;SDS011;13066;52.042;5.648;2023-02-02T05:39:23;17.60;;;3.75;;
25073;SDS011;13066;52.042;5.648;2023-02-02T05:41:51;21.20;;;3.78;;
25073;SDS011;13066;52.042;5.648;2023-02-02T05:44:19;23.15;;;4.05;;
25073;SDS011;13066;52.042;5.648;2023-02-02T05:46:47;18.38;;;4.28;;
25073;SDS011;13066;52.042;5.648;2023-02-02T05:49:15;25.38;;;4.50;;
25073;SDS011;13066;52.042;5.648;2023-02-02T05:51:43;22.63;;;3.50;;
25073;SDS011;13066;52.042;5.648;2023-02-02T05:54:15;20.95;;;4.50;;
25073;SDS011;13066;52.042;5.648;2023-02-02T05:56:46;30.08;;;4.03;;
25073;SDS011;13066;52.042;5.648;2023-02-02T05:59:14;20.00;;;3.97;;
25073;SDS011;13066;52.042;5.648;2023-02-02T06:01:43;24.65;;;4.35;;
25073;SDS011;13066;52.042;5.648;2023-02-02T06:04:11;19.35;;;3.83;;
25073;SDS011;13066;52.042;5.648;2023-02-02T06:06:42;28.60;;;4.15;;
25073;SDS011;13066;52.042;5.648;2023-02-02T06:09:12;20.60;;;4.10;;
25073;SDS011;13066;52.042;5.648;2023-02-02T06:11:45;29.10;;;4.05;;
25073;SDS011;13066;52.042;5.648;2023-02-02T06:14:12;21.75;;;3.25;;
25073;SDS011;13066;52.042;5.648;2023-02-02T06:16:40;23.88;;;3.78;;
25073;SDS011;13066;52.042;5.648;2023-02-02T06:19:09;19.38;;;3.55;;
25073;SDS011;13066;52.042;5.648;2023-02-02T06:21:37;19.20;;;3.63;;
25073;SDS011;13066;52.042;5.648;2023-02-02T06:24:05;18.30;;;3.83;;
25073;SDS011;13066;52.042;5.648;2023-02-02T06:26:33;28.27;;;3.75;;
25073;SDS011;13066;52.042;5.648;2023-02-02T06:29:03;19.58;;;3.70;;
25073;SDS011;13066;52.042;5.648;2023-02-02T06:31:30;24.17;;;4.57;;
25073;SDS011;13066;52.042;5.648;2023-02-02T06:33:59;20.27;;;3.88;;
25073;SDS011;13066;52.042;5.648;2023-02-02T06:36:27;22.40;;;3.88;;
25073;SDS011;13066;52.042;5.648;2023-02-02T06:38:56;19.35;;;4.28;;
25073;SDS011;13066;52.042;5.648;2023-02-02T06:41:24;26.95;;;3.65;;
25073;SDS011;13066;52.042;5.648;2023-02-02T06:43:53;19.48;;;3.65;;
25073;SDS011;13066;52.042;5.648;2023-02-02T06:46:26;26.35;;;4.10;;
25073;SDS011;13066;52.042;5.648;2023-02-02T06:48:54;24.80;;;3.65;;
25073;SDS011;13066;52.042;5.648;2023-02-02T06:51:22;21.95;;;4.28;;
25073;SDS011;13066;52.042;5.648;2023-02-02T06:53:50;23.45;;;3.85;;
25073;SDS011;13066;52.042;5.648;2023-02-02T06:56:18;29.90;;;4.38;;
25073;SDS011;13066;52.042;5.648;2023-02-02T06:58:46;20.83;;;4.07;;
25073;SDS011;13066;52.042;5.648;2023-02-02T07:01:13;22.35;;;3.83;;
25073;SDS011;13066;52.042;5.648;2023-02-02T07:03:43;19.58;;;3.20;;
25073;SDS011;13066;52.042;5.648;2023-02-02T07:06:15;25.30;;;4.67;;
25073;SDS011;13066;52.042;5.648;2023-02-02T07:08:44;22.23;;;3.55;;
25073;SDS011;13066;52.042;5.648;2023-02-02T07:11:26;21.25;;;4.18;;
25073;SDS011;13066;52.042;5.648;2023-02-02T07:13:54;22.80;;;3.90;;
25073;SDS011;13066;52.042;5.648;2023-02-02T07:16:22;17.10;;;4.38;;
25073;SDS011;13066;52.042;5.648;2023-02-02T07:18:51;27.42;;;4.72;;
25073;SDS011;13066;52.042;5.648;2023-02-02T07:21:20;21.52;;;4.60;;
25073;SDS011;13066;52.042;5.648;2023-02-02T07:23:49;27.83;;;5.18;;
25073;SDS011;13066;52.042;5.648;2023-02-02T07:26:18;27.42;;;4.45;;
25073;SDS011;13066;52.042;5.648;2023-02-02T07:28:46;19.13;;;4.43;;
25073;SDS011;13066;52.042;5.648;2023-02-02T07:31:15;22.23;;;4.07;;
25073;SDS011;13066;52.042;5.648;2023-02-02T07:33:44;22.00;;;4.53;;
25073;SDS011;13066;52.042;5.648;2023-02-02T07:36:14;22.13;;;5.15;;
25073;SDS011;13066;52.042;5.648;2023-02-02T07:38:43;23.60;;;4.85;;
25073;SDS011;13066;52.042;5.648;2023-02-02T07:41:11;29.73;;;5.13;;
25073;SDS011;13066;52.042;5.648;2023-02-02T07:43:40;25.67;;;4.95;;
25073;SDS011;13066;52.042;5.648;2023-02-02T07:46:08;22.92;;;5.00;;
25073;SDS011;13066;52.042;5.648;2023-02-02T07:48:41;29.95;;;4.75;;
25073;SDS011;13066;52.042;5.648;2023-02-02T07:51:09;20.40;;;4.78;;
25073;SDS011;13066;52.042;5.648;2023-02-02T07:53:42;19.52;;;4.38;;
25073;SDS011;13066;52.042;5.648;2023-02-02T07:56:11;22.52;;;4.03;;
25073;SDS011;13066;52.042;5.648;2023-02-02T07:58:40;26.90;;;4.70;;
25073;SDS011;13066;52.042;5.648;2023-02-02T08:01:09;23.17;;;4.38;;
25073;SDS011;13066;52.042;5.648;2023-02-02T08:03:38;28.88;;;4.15;;
25073;SDS011;13066;52.042;5.648;2023-02-02T08:06:10;20.08;;;3.88;;
25073;SDS011;13066;52.042;5.648;2023-02-02T08:08:39;21.73;;;4.28;;
25073;SDS011;13066;52.042;5.648;2023-02-02T08:11:08;29.48;;;5.18;;
25073;SDS011;13066;52.042;5.648;2023-02-02T08:13:37;24.73;;;4.43;;
25073;SDS011;13066;52.042;5.648;2023-02-02T08:16:05;30.15;;;4.18;;
25073;SDS011;13066;52.042;5.648;2023-02-02T08:18:34;35.63;;;4.18;;
25073;SDS011;13066;52.042;5.648;2023-02-02T08:21:05;29.25;;;3.90;;
25073;SDS011;13066;52.042;5.648;2023-02-02T08:23:35;22.98;;;4.47;;
25073;SDS011;13066;52.042;5.648;2023-02-02T08:26:07;30.75;;;4.05;;
25073;SDS011;13066;52.042;5.648;2023-02-02T08:28:38;25.52;;;5.55;;
25073;SDS011;13066;52.042;5.648;2023-02-02T08:31:06;20.17;;;3.40;;
25073;SDS011;13066;52.042;5.648;2023-02-02T08:33:35;20.45;;;3.88;;
25073;SDS011;13066;52.042;5.648;2023-02-02T08:36:07;26.83;;;4.57;;
25073;SDS011;13066;52.042;5.648;2023-02-02T08:38:36;21.85;;;4.35;;
25073;SDS011;13066;52.042;5.648;2023-02-02T08:41:04;17.40;;;4.38;;
25073;SDS011;13066;52.042;5.648;2023-02-02T08:43:34;21.67;;;4.57;;
25073;SDS011;13066;52.042;5.648;2023-02-02T08:46:02;23.98;;;3.85;;
25073;SDS011;13066;52.042;5.648;2023-02-02T08:48:31;29.52;;;4.47;;
25073;SDS011;13066;52.042;5.648;2023-02-02T08:51:01;23.42;;;3.85;;
25073;SDS011;13066;52.042;5.648;2023-02-02T08:53:29;19.67;;;3.22;;
25073;SDS011;13066;52.042;5.648;2023-02-02T08:55:58;25.48;;;4.00;;
25073;SDS011;13066;52.042;5.648;2023-02-02T08:58:26;21.83;;;3.67;;
25073;SDS011;13066;52.042;5.648;2023-02-02T09:01:02;23.63;;;4.13;;
25073;SDS011;13066;52.042;5.648;2023-02-02T09:03:31;24.42;;;4.57;;
25073;SDS011;13066;52.042;5.648;2023-02-02T09:06:02;29.95;;;4.38;;
25073;SDS011;13066;52.042;5.648;2023-02-02T09:08:30;23.98;;;3.75;;
25073;SDS011;13066;52.042;5.648;2023-02-02T09:11:03;25.83;;;4.50;;
25073;SDS011;13066;52.042;5.648;2023-02-02T09:13:32;24.02;;;3.53;;
25073;SDS011;13066;52.042;5.648;2023-02-02T09:16:02;23.00;;;3.95;;
25073;SDS011;13066;52.042;5.648;2023-02-02T09:18:31;26.67;;;3.80;;
25073;SDS011;13066;52.042;5.648;2023-02-02T09:20:59;20.52;;;3.65;;
25073;SDS011;13066;52.042;5.648;2023-02-02T09:23:28;19.10;;;3.33;;
25073;SDS011;13066;52.042;5.648;2023-02-02T09:25:57;27.17;;;3.63;;
25073;SDS011;13066;52.042;5.648;2023-02-02T09:28:30;33.25;;;3.95;;
25073;SDS011;13066;52.042;5.648;2023-02-02T09:30:59;20.73;;;3.63;;
25073;SDS011;13066;52.042;5.648;2023-02-02T09:33:29;22.00;;;4.45;;
25073;SDS011;13066;52.042;5.648;2023-02-02T09:36:02;26.27;;;3.88;;
25073;SDS011;13066;52.042;5.648;2023-02-02T09:38:32;23.85;;;3.63;;
25073;SDS011;13066;52.042;5.648;2023-02-02T09:41:00;15.00;;;3.67;;
25073;SDS011;13066;52.042;5.648;2023-02-02T09:43:35;23.15;;;3.92;;
25073;SDS011;13066;52.042;5.648;2023-02-02T09:46:11;15.88;;;2.78;;
25073;SDS011;13066;52.042;5.648;2023-02-02T09:48:48;19.80;;;3.05;;
25073;SDS011;13066;52.042;5.648;2023-02-02T09:51:24;29.50;;;4.85;;
25073;SDS011;13066;52.042;5.648;2023-02-02T09:53:55;25.15;;;3.53;;
25073;SDS011;13066;52.042;5.648;2023-02-02T09:56:27;17.05;;;3.53;;
25073;SDS011;13066;52.042;5.648;2023-02-02T09:58:58;18.67;;;3.50;;
25073;SDS011;13066;52.042;5.648;2023-02-02T10:01:44;26.60;;;3.90;;
25073;SDS011;13066;52.042;5.648;2023-02-02T10:04:15;23.27;;;3.47;;
25073;SDS011;13066;52.042;5.648;2023-02-02T10:06:47;19.58;;;3.58;;
25073;SDS011;13066;52.042;5.648;2023-02-02T10:09:19;24.60;;;3.70;;
25073;SDS011;13066;52.042;5.648;2023-02-02T10:11:55;24.50;;;3.88;;
25073;SDS011;13066;52.042;5.648;2023-02-02T10:14:26;23.63;;;3.72;;
25073;SDS011;13066;52.042;5.648;2023-02-02T10:16:59;21.27;;;3.70;;
25073;SDS011;13066;52.042;5.648;2023-02-02T10:19:36;16.20;;;3.10;;
25073;SDS011;13066;52.042;5.648;2023-02-02T10:22:06;18.55;;;3.65;;
25073;SDS011;13066;52.042;5.648;2023-02-02T10:24:38;18.52;;;3.75;;
25073;SDS011;13066;52.042;5.648;2023-02-02T10:27:07;21.17;;;4.35;;
25073;SDS011;13066;52.042;5.648;2023-02-02T10:29:44;28.70;;;3.95;;
25073;SDS011;13066;52.042;5.648;2023-02-02T10:32:19;24.70;;;3.80;;
25073;SDS011;13066;52.042;5.648;2023-02-02T10:34:57;19.45;;;3.88;;
25073;SDS011;13066;52.042;5.648;2023-02-02T10:37:41;25.02;;;3.65;;
25073;SDS011;13066;52.042;5.648;2023-02-02T10:40:18;19.20;;;3.42;;
25073;SDS011;13066;52.042;5.648;2023-02-02T10:42:54;25.42;;;3.97;;
25073;SDS011;13066;52.042;5.648;2023-02-02T10:45:49;21.00;;;3.28;;
25073;SDS011;13066;52.042;5.648;2023-02-02T10:48:19;26.92;;;3.90;;
25073;SDS011;13066;52.042;5.648;2023-02-02T10:50:51;21.65;;;4.30;;
25073;SDS011;13066;52.042;5.648;2023-02-02T10:53:21;24.15;;;3.83;;
25073;SDS011;13066;52.042;5.648;2023-02-02T10:55:52;17.98;;;3.35;;
25073;SDS011;13066;52.042;5.648;2023-02-02T10:58:22;22.92;;;3.65;;
25073;SDS011;13066;52.042;5.648;2023-02-02T11:00:54;18.52;;;3.78;;
25073;SDS011;13066;52.042;5.648;2023-02-02T11:03:24;17.80;;;3.90;;
25073;SDS011;13066;52.042;5.648;2023-02-02T11:05:55;16.63;;;4.32;;
25073;SDS011;13066;52.042;5.648;2023-02-02T11:08:41;16.45;;;3.47;;
25073;SDS011;13066;52.042;5.648;2023-02-02T11:11:11;21.13;;;3.58;;
25073;SDS011;13066;52.042;5.648;2023-02-02T11:13:46;15.85;;;3.30;;
25073;SDS011;13066;52.042;5.648;2023-02-02T11:16:22;22.88;;;3.70;;
25073;SDS011;13066;52.042;5.648;2023-02-02T11:19:20;13.98;;;3.40;;
25073;SDS011;13066;52.042;5.648;2023-02-02T11:21:50;31.40;;;4.40;;
25073;SDS011;13066;52.042;5.648;2023-02-02T11:24:20;20.92;;;3.67;;
25073;SDS011;13066;52.042;5.648;2023-02-02T11:26:50;19.65;;;4.00;;
25073;SDS011;13066;52.042;5.648;2023-02-02T11:29:24;21.25;;;3.75;;
25073;SDS011;13066;52.042;5.648;2023-02-02T11:31:54;18.27;;;3.50;;
25073;SDS011;13066;52.042;5.648;2023-02-02T11:34:23;25.15;;;3.60;;
25073;SDS011;13066;52.042;5.648;2023-02-02T11:37:00;22.85;;;3.95;;
25073;SDS011;13066;52.042;5.648;2023-02-02T11:39:30;17.15;;;3.70;;
25073;SDS011;13066;52.042;5.648;2023-02-02T11:42:01;15.13;;;3.72;;
25073;SDS011;13066;52.042;5.648;2023-02-02T11:44:34;22.27;;;4.53;;
25073;SDS011;13066;52.042;5.648;2023-02-02T11:47:05;22.00;;;4.43;;
25073;SDS011;13066;52.042;5.648;2023-02-02T11:49:36;17.13;;;3.50;;
25073;SDS011;13066;52.042;5.648;2023-02-02T11:52:07;23.33;;;5.10;;
25073;SDS011;13066;52.042;5.648;2023-02-02T11:54:44;26.83;;;7.32;;
25073;SDS011;13066;52.042;5.648;2023-02-02T11:57:15;15.77;;;4.05;;
25073;SDS011;13066;52.042;5.648;2023-02-02T11:59:44;16.77;;;3.17;;
25073;SDS011;13066;52.042;5.648;2023-02-02T12:02:20;23.38;;;4.43;;
25073;SDS011;13066;52.042;5.648;2023-02-02T12:04:50;13.82;;;3.17;;
25073;SDS011;13066;52.042;5.648;2023-02-02T12:07:22;13.25;;;3.03;;
25073;SDS011;13066;52.042;5.648;2023-02-02T12:09:55;20.77;;;3.92;;
25073;SDS011;13066;52.042;5.648;2023-02-02T12:12:27;15.18;;;3.28;;
25073;SDS011;13066;52.042;5.648;2023-02-02T12:15:02;17.13;;;2.80;;
25073;SDS011;13066;52.042;5.648;2023-02-02T12:17:38;23.20;;;3.40;;
25073;SDS011;13066;52.042;5.648;2023-02-02T12:20:18;12.35;;;2.85;;
25073;SDS011;13066;52.042;5.648;2023-02-02T12:22:55;17.90;;;3.30;;
25073;SDS011;13066;52.042;5.648;2023-02-02T12:25:34;20.60;;;2.88;;
25073;SDS011;13066;52.042;5.648;2023-02-02T12:28:16;20.05;;;3.60;;
25073;SDS011;13066;52.042;5.648;2023-02-02T12:30:55;17.77;;;2.97;;
25073;SDS011;13066;52.042;5.648;2023-02-02T12:33:29;19.70;;;3.40;;
25073;SDS011;13066;52.042;5.648;2023-02-02T12:36:08;19.85;;;3.08;;
25073;SDS011;13066;52.042;5.648;2023-02-02T12:38:58;23.35;;;3.90;;
25073;SDS011;13066;52.042;5.648;2023-02-02T12:41:37;14.55;;;2.90;;
25073;SDS011;13066;52.042;5.648;2023-02-02T12:44:17;20.48;;;3.58;;
25073;SDS011;13066;52.042;5.648;2023-02-02T12:46:56;12.30;;;3.20;;
25073;SDS011;13066;52.042;5.648;2023-02-02T12:49:36;21.38;;;3.15;;
25073;SDS011;13066;52.042;5.648;2023-02-02T12:52:20;12.65;;;3.00;;
25073;SDS011;13066;52.042;5.648;2023-02-02T12:55:06;18.27;;;3.45;;
25073;SDS011;13066;52.042;5.648;2023-02-02T12:57:46;19.83;;;3.17;;
25073;SDS011;13066;52.042;5.648;2023-02-02T13:00:25;19.75;;;3.17;;
25073;SDS011;13066;52.042;5.648;2023-02-02T13:03:17;16.00;;;2.53;;
25073;SDS011;13066;52.042;5.648;2023-02-02T13:05:53;20.02;;;3.20;;
25073;SDS011;13066;52.042;5.648;2023-02-02T13:08:26;14.77;;;3.08;;
25073;SDS011;13066;52.042;5.648;2023-02-02T13:10:58;19.88;;;3.20;;
25073;SDS011;13066;52.042;5.648;2023-02-02T13:13:29;17.48;;;2.83;;
25073;SDS011;13066;52.042;5.648;2023-02-02T13:16:02;18.42;;;3.13;;
25073;SDS011;13066;52.042;5.648;2023-02-02T13:18:33;16.65;;;2.58;;
25073;SDS011;13066;52.042;5.648;2023-02-02T13:21:04;11.93;;;2.78;;
25073;SDS011;13066;52.042;5.648;2023-02-02T13:23:35;19.95;;;3.17;;
25073;SDS011;13066;52.042;5.648;2023-02-02T13:26:08;20.42;;;3.38;;
25073;SDS011;13066;52.042;5.648;2023-02-02T13:28:40;21.65;;;3.53;;
25073;SDS011;13066;52.042;5.648;2023-02-02T13:31:13;18.08;;;3.35;;
25073;SDS011;13066;52.042;5.648;2023-02-02T13:33:43;17.00;;;3.58;;
25073;SDS011;13066;52.042;5.648;2023-02-02T13:36:15;14.90;;;3.13;;
25073;SDS011;13066;52.042;5.648;2023-02-02T13:38:52;18.63;;;4.32;;
25073;SDS011;13066;52.042;5.648;2023-02-02T13:41:22;16.13;;;3.83;;
25073;SDS011;13066;52.042;5.648;2023-02-02T13:43:51;19.95;;;4.00;;
25073;SDS011;13066;52.042;5.648;2023-02-02T13:46:24;21.65;;;3.67;;
25073;SDS011;13066;52.042;5.648;2023-02-02T13:48:56;17.25;;;3.83;;
25073;SDS011;13066;52.042;5.648;2023-02-02T13:57:29;12.10;;;3.67;;
25073;SDS011;13066;52.042;5.648;2023-02-02T14:00:11;16.15;;;4.65;;
25073;SDS011;13066;52.042;5.648;2023-02-02T14:02:42;16.02;;;4.47;;
25073;SDS011;13066;52.042;5.648;2023-02-02T14:05:19;13.30;;;4.43;;
25073;SDS011;13066;52.042;5.648;2023-02-02T14:07:52;22.92;;;5.80;;
25073;SDS011;13066;52.042;5.648;2023-02-02T14:10:23;15.98;;;4.15;;
25073;SDS011;13066;52.042;5.648;2023-02-02T14:12:53;9.05;;;3.90;;
25073;SDS011;13066;52.042;5.648;2023-02-02T14:15:34;13.32;;;3.60;;
25073;SDS011;13066;52.042;5.648;2023-02-02T14:18:05;9.30;;;3.03;;
25073;SDS011;13066;52.042;5.648;2023-02-02T14:20:41;10.32;;;3.20;;
25073;SDS011;13066;52.042;5.648;2023-02-02T14:26:17;9.60;;;2.38;;
25073;SDS011;13066;52.042;5.648;2023-02-02T14:32:27;5.50;;;3.05;;
25073;SDS011;13066;52.042;5.648;2023-02-02T14:34:57;7.50;;;2.85;;
25073;SDS011;13066;52.042;5.648;2023-02-02T14:37:28;6.60;;;2.78;;
25073;SDS011;13066;52.042;5.648;2023-02-02T14:40:07;6.63;;;2.58;;
25073;SDS011;13066;52.042;5.648;2023-02-02T14:42:47;4.88;;;2.70;;
25073;SDS011;13066;52.042;5.648;2023-02-02T14:45:37;5.88;;;2.67;;
25073;SDS011;13066;52.042;5.648;2023-02-02T14:48:07;5.25;;;2.53;;
25073;SDS011;13066;52.042;5.648;2023-02-02T14:50:42;6.28;;;2.80;;
25073;SDS011;13066;52.042;5.648;2023-02-02T14:53:16;4.15;;;2.33;;
25073;SDS011;13066;52.042;5.648;2023-02-02T14:55:50;6.32;;;2.83;;
25073;SDS011;13066;52.042;5.648;2023-02-02T14:58:22;6.40;;;2.53;;
25073;SDS011;13066;52.042;5.648;2023-02-02T15:00:58;3.78;;;2.70;;
25073;SDS011;13066;52.042;5.648;2023-02-02T15:03:35;3.75;;;2.20;;
25073;SDS011;13066;52.042;5.648;2023-02-02T15:06:31;4.43;;;2.35;;
25073;SDS011;13066;52.042;5.648;2023-02-02T15:15:01;4.90;;;2.03;;
25073;SDS011;13066;52.042;5.648;2023-02-02T15:17:43;2.58;;;2.05;;
25073;SDS011;13066;52.042;5.648;2023-02-02T15:20:30;3.88;;;2.30;;
25073;SDS011;13066;52.042;5.648;2023-02-02T15:23:01;4.35;;;2.25;;
25073;SDS011;13066;52.042;5.648;2023-02-02T15:25:34;3.78;;;2.42;;
25073;SDS011;13066;52.042;5.648;2023-02-02T15:28:08;4.80;;;3.00;;
25073;SDS011;13066;52.042;5.648;2023-02-02T15:30:40;7.25;;;2.75;;